Novato, CA (94945)

12:16 AM PDT on August 25, 2016 (GMT -0700)
| | Change Station

Elev -9999 ft 0.00 °N, 0.00 °E | Updated

Clear
Clear
52 °F
Feels Like 52 °F
N
3
Wind Variable Wind from NW
Gusts mph

Today
High -- | Low -- °F
--% Chance of Precip.
Yesterday
High -- | Low -- °F
Precip. -- in
Pressure 30.00 in
Visibility 4.0 miles
Clouds Few 7500 ft
Dew Point 49 °F
Humidity 91%
Rainfall --
Snow Depth Not available.
6:34 AM 7:49 PM
Waning Gibbous, 48% visible
METAR KO69 250655Z AUTO 31004KT 4SM FEW075 12/M45 A3000 RMK AO1
Pressure 30.00 in
Visibility 4.0 miles
Clouds Few 7500 ft
Dew Point 49 °F
Humidity 91%
Rainfall --
Snow Depth Not available.
6:34 AM 7:49 PM
Waning Gibbous, 48% visible
METAR KO69 250655Z AUTO 31004KT 4SM FEW075 12/M45 A3000 RMK AO1

10-Day Weather Forecast

Almanac

Astronomy

Aug. 25, 2016 Rise Set
Actual Time
Civil Twilight
Nautical Twilight
Astronomical Twilight
Moon
Length of Visible Light
Length of Day
Tomorrow will be .
, % of the Moon is Illuminated

Today's Extremes

State Highs State Lows

Community

WunderPhotos

Upload Photos

1,934,814 photos uploaded!

WunderBlog® & News

Nearby

Air Quality

  Air Quality AQ Index Pollutant
Not available.

Snow Depth

Station Depth Elevation

Earthquake Activity

City Distance Mag. Time & Date
Minimum magnitude displayed is 2.5.

Coastal Water Temperatures

Place Temperature

Stations

Nearby Weather Stations

Station Location Temp. Windchill Dew Point Humidity Wind Precip. Elev Updated Type
                   

Watches & Warnings

There are currently no watches in effect.